sensor_id;sensor_type;location;lat;lon;timestamp;P1;durP1;ratioP1;P2;durP2;ratioP2
38083;SDS011;23894;51.466;7.444;2023-06-14T00:01:44;9.68;;;6.80;;
38083;SDS011;23894;51.466;7.444;2023-06-14T00:03:45;9.52;;;7.22;;
38083;SDS011;23894;51.466;7.444;2023-06-14T00:05:48;8.90;;;6.75;;
38083;SDS011;23894;51.466;7.444;2023-06-14T00:07:50;9.63;;;6.72;;
38083;SDS011;23894;51.466;7.444;2023-06-14T00:09:53;11.25;;;6.95;;
38083;SDS011;23894;51.466;7.444;2023-06-14T00:13:56;9.18;;;7.15;;
38083;SDS011;23894;51.466;7.444;2023-06-14T00:15:57;10.02;;;7.40;;
38083;SDS011;23894;51.466;7.444;2023-06-14T00:18:04;9.75;;;7.47;;
38083;SDS011;23894;51.466;7.444;2023-06-14T00:20:05;10.10;;;7.25;;
38083;SDS011;23894;51.466;7.444;2023-06-14T00:22:06;10.02;;;7.38;;
38083;SDS011;23894;51.466;7.444;2023-06-14T00:24:07;11.30;;;7.72;;
38083;SDS011;23894;51.466;7.444;2023-06-14T00:28:09;10.35;;;7.03;;
38083;SDS011;23894;51.466;7.444;2023-06-14T00:32:11;10.48;;;7.10;;
38083;SDS011;23894;51.466;7.444;2023-06-14T00:36:14;12.35;;;7.50;;
38083;SDS011;23894;51.466;7.444;2023-06-14T00:38:15;10.40;;;7.93;;
38083;SDS011;23894;51.466;7.444;2023-06-14T00:40:17;9.70;;;7.53;;
38083;SDS011;23894;51.466;7.444;2023-06-14T00:42:27;9.45;;;7.40;;
38083;SDS011;23894;51.466;7.444;2023-06-14T00:44:31;10.15;;;7.20;;
38083;SDS011;23894;51.466;7.444;2023-06-14T00:46:33;11.38;;;7.53;;
38083;SDS011;23894;51.466;7.444;2023-06-14T00:48:36;9.73;;;7.40;;
38083;SDS011;23894;51.466;7.444;2023-06-14T00:50:37;11.18;;;7.35;;
38083;SDS011;23894;51.466;7.444;2023-06-14T00:52:40;9.85;;;7.32;;
38083;SDS011;23894;51.466;7.444;2023-06-14T00:56:43;9.10;;;7.20;;
38083;SDS011;23894;51.466;7.444;2023-06-14T00:58:46;8.65;;;7.10;;
38083;SDS011;23894;51.466;7.444;2023-06-14T01:00:47;10.18;;;7.57;;
38083;SDS011;23894;51.466;7.444;2023-06-14T01:02:48;10.40;;;7.60;;
38083;SDS011;23894;51.466;7.444;2023-06-14T01:04:50;9.57;;;7.15;;
38083;SDS011;23894;51.466;7.444;2023-06-14T01:09:09;10.63;;;7.70;;
38083;SDS011;23894;51.466;7.444;2023-06-14T01:11:20;9.82;;;7.25;;
38083;SDS011;23894;51.466;7.444;2023-06-14T01:13:29;8.95;;;6.88;;
38083;SDS011;23894;51.466;7.444;2023-06-14T01:15:36;8.23;;;6.53;;
38083;SDS011;23894;51.466;7.444;2023-06-14T01:17:37;9.52;;;7.15;;
38083;SDS011;23894;51.466;7.444;2023-06-14T01:19:44;9.20;;;7.32;;
38083;SDS011;23894;51.466;7.444;2023-06-14T01:21:45;9.93;;;7.50;;
38083;SDS011;23894;51.466;7.444;2023-06-14T01:23:51;10.95;;;7.85;;
38083;SDS011;23894;51.466;7.444;2023-06-14T01:25:57;9.15;;;6.97;;
38083;SDS011;23894;51.466;7.444;2023-06-14T01:28:04;10.27;;;7.43;;
38083;SDS011;23894;51.466;7.444;2023-06-14T01:30:14;10.90;;;7.07;;
38083;SDS011;23894;51.466;7.444;2023-06-14T01:32:16;11.48;;;7.53;;
38083;SDS011;23894;51.466;7.444;2023-06-14T01:34:18;10.65;;;7.47;;
38083;SDS011;23894;51.466;7.444;2023-06-14T01:36:19;9.65;;;7.32;;
38083;SDS011;23894;51.466;7.444;2023-06-14T01:38:21;10.90;;;7.53;;
38083;SDS011;23894;51.466;7.444;2023-06-14T01:40:22;13.30;;;8.13;;
38083;SDS011;23894;51.466;7.444;2023-06-14T01:42:24;9.15;;;7.03;;
38083;SDS011;23894;51.466;7.444;2023-06-14T01:44:26;9.18;;;7.00;;
38083;SDS011;23894;51.466;7.444;2023-06-14T01:46:28;10.23;;;7.50;;
38083;SDS011;23894;51.466;7.444;2023-06-14T01:50:32;9.70;;;6.95;;
38083;SDS011;23894;51.466;7.444;2023-06-14T01:52:36;9.90;;;7.15;;
38083;SDS011;23894;51.466;7.444;2023-06-14T01:54:38;10.77;;;6.68;;
38083;SDS011;23894;51.466;7.444;2023-06-14T01:56:41;9.35;;;6.97;;
38083;SDS011;23894;51.466;7.444;2023-06-14T01:58:43;9.88;;;6.95;;
38083;SDS011;23894;51.466;7.444;2023-06-14T02:00:56;10.60;;;7.65;;
38083;SDS011;23894;51.466;7.444;2023-06-14T02:03:02;11.25;;;7.70;;
38083;SDS011;23894;51.466;7.444;2023-06-14T02:05:04;9.35;;;7.22;;
38083;SDS011;23894;51.466;7.444;2023-06-14T02:09:07;11.10;;;6.85;;
38083;SDS011;23894;51.466;7.444;2023-06-14T02:11:09;8.82;;;6.65;;
38083;SDS011;23894;51.466;7.444;2023-06-14T02:13:11;9.20;;;7.15;;
38083;SDS011;23894;51.466;7.444;2023-06-14T02:15:13;9.43;;;7.15;;
38083;SDS011;23894;51.466;7.444;2023-06-14T02:17:18;10.48;;;7.45;;
38083;SDS011;23894;51.466;7.444;2023-06-14T02:23:21;10.13;;;6.57;;
38083;SDS011;23894;51.466;7.444;2023-06-14T02:27:23;8.43;;;6.57;;
38083;SDS011;23894;51.466;7.444;2023-06-14T02:29:26;9.18;;;6.97;;
38083;SDS011;23894;51.466;7.444;2023-06-14T02:31:28;9.98;;;7.28;;
38083;SDS011;23894;51.466;7.444;2023-06-14T02:33:30;9.75;;;7.35;;
38083;SDS011;23894;51.466;7.444;2023-06-14T02:35:32;9.73;;;7.10;;
38083;SDS011;23894;51.466;7.444;2023-06-14T02:37:34;9.98;;;6.63;;
38083;SDS011;23894;51.466;7.444;2023-06-14T02:39:36;9.20;;;7.00;;
38083;SDS011;23894;51.466;7.444;2023-06-14T02:41:37;9.25;;;6.97;;
38083;SDS011;23894;51.466;7.444;2023-06-14T02:43:38;9.57;;;7.10;;
38083;SDS011;23894;51.466;7.444;2023-06-14T02:45:39;10.35;;;7.43;;
38083;SDS011;23894;51.466;7.444;2023-06-14T02:49:41;8.60;;;6.57;;
38083;SDS011;23894;51.466;7.444;2023-06-14T02:53:43;10.65;;;6.97;;
38083;SDS011;23894;51.466;7.444;2023-06-14T02:55:44;9.75;;;6.88;;
38083;SDS011;23894;51.466;7.444;2023-06-14T02:57:48;10.27;;;7.53;;
38083;SDS011;23894;51.466;7.444;2023-06-14T02:59:51;10.02;;;7.28;;
38083;SDS011;23894;51.466;7.444;2023-06-14T03:01:53;11.70;;;7.80;;
38083;SDS011;23894;51.466;7.444;2023-06-14T03:03:56;10.52;;;8.07;;
38083;SDS011;23894;51.466;7.444;2023-06-14T03:05:57;10.65;;;8.25;;
38083;SDS011;23894;51.466;7.444;2023-06-14T03:08:02;10.57;;;7.47;;
38083;SDS011;23894;51.466;7.444;2023-06-14T03:10:05;11.95;;;7.47;;
38083;SDS011;23894;51.466;7.444;2023-06-14T03:12:08;9.30;;;6.90;;
38083;SDS011;23894;51.466;7.444;2023-06-14T03:14:09;10.25;;;7.18;;
38083;SDS011;23894;51.466;7.444;2023-06-14T03:16:13;8.55;;;7.20;;
38083;SDS011;23894;51.466;7.444;2023-06-14T03:18:15;9.35;;;6.82;;
38083;SDS011;23894;51.466;7.444;2023-06-14T03:20:24;11.00;;;7.65;;
38083;SDS011;23894;51.466;7.444;2023-06-14T03:22:29;11.20;;;7.50;;
38083;SDS011;23894;51.466;7.444;2023-06-14T03:24:30;13.23;;;7.50;;
38083;SDS011;23894;51.466;7.444;2023-06-14T03:26:36;10.63;;;7.88;;
38083;SDS011;23894;51.466;7.444;2023-06-14T03:28:37;11.35;;;6.97;;
38083;SDS011;23894;51.466;7.444;2023-06-14T03:30:38;9.18;;;7.13;;
38083;SDS011;23894;51.466;7.444;2023-06-14T03:32:39;9.05;;;7.43;;
38083;SDS011;23894;51.466;7.444;2023-06-14T03:36:43;9.35;;;6.95;;
38083;SDS011;23894;51.466;7.444;2023-06-14T03:38:44;11.23;;;7.35;;
38083;SDS011;23894;51.466;7.444;2023-06-14T03:40:45;9.40;;;7.10;;
38083;SDS011;23894;51.466;7.444;2023-06-14T03:44:48;8.20;;;6.80;;
38083;SDS011;23894;51.466;7.444;2023-06-14T03:46:51;9.57;;;7.30;;
38083;SDS011;23894;51.466;7.444;2023-06-14T03:48:53;10.55;;;7.05;;
38083;SDS011;23894;51.466;7.444;2023-06-14T03:50:54;9.80;;;7.40;;
38083;SDS011;23894;51.466;7.444;2023-06-14T03:52:59;10.88;;;7.25;;
38083;SDS011;23894;51.466;7.444;2023-06-14T03:55:23;12.15;;;7.55;;
38083;SDS011;23894;51.466;7.444;2023-06-14T03:57:29;10.55;;;6.90;;
38083;SDS011;23894;51.466;7.444;2023-06-14T03:59:31;8.88;;;7.10;;
38083;SDS011;23894;51.466;7.444;2023-06-14T04:01:32;11.40;;;7.40;;
38083;SDS011;23894;51.466;7.444;2023-06-14T04:03:33;16.55;;;7.72;;
38083;SDS011;23894;51.466;7.444;2023-06-14T04:05:34;10.65;;;7.65;;
38083;SDS011;23894;51.466;7.444;2023-06-14T04:07:36;12.52;;;7.22;;
38083;SDS011;23894;51.466;7.444;2023-06-14T04:09:45;10.05;;;7.28;;
38083;SDS011;23894;51.466;7.444;2023-06-14T04:11:48;10.43;;;7.18;;
38083;SDS011;23894;51.466;7.444;2023-06-14T04:13:50;15.32;;;8.90;;
38083;SDS011;23894;51.466;7.444;2023-06-14T04:15:54;11.88;;;7.50;;
38083;SDS011;23894;51.466;7.444;2023-06-14T04:17:56;11.10;;;6.97;;
38083;SDS011;23894;51.466;7.444;2023-06-14T04:19:58;14.18;;;7.55;;
38083;SDS011;23894;51.466;7.444;2023-06-14T04:22:01;10.38;;;7.22;;
38083;SDS011;23894;51.466;7.444;2023-06-14T04:24:05;9.63;;;7.18;;
38083;SDS011;23894;51.466;7.444;2023-06-14T04:26:06;10.23;;;7.00;;
38083;SDS011;23894;51.466;7.444;2023-06-14T04:28:13;9.35;;;6.63;;
38083;SDS011;23894;51.466;7.444;2023-06-14T04:30:18;9.02;;;6.45;;
38083;SDS011;23894;51.466;7.444;2023-06-14T04:32:23;9.80;;;5.97;;
38083;SDS011;23894;51.466;7.444;2023-06-14T04:34:29;8.90;;;5.57;;
38083;SDS011;23894;51.466;7.444;2023-06-14T04:36:33;8.80;;;6.22;;
38083;SDS011;23894;51.466;7.444;2023-06-14T04:38:38;9.52;;;5.43;;
38083;SDS011;23894;51.466;7.444;2023-06-14T04:40:39;8.25;;;5.18;;
38083;SDS011;23894;51.466;7.444;2023-06-14T04:42:44;7.90;;;5.63;;
38083;SDS011;23894;51.466;7.444;2023-06-14T04:44:46;9.23;;;5.63;;
38083;SDS011;23894;51.466;7.444;2023-06-14T04:46:48;10.05;;;5.63;;
38083;SDS011;23894;51.466;7.444;2023-06-14T04:48:51;8.57;;;5.03;;
38083;SDS011;23894;51.466;7.444;2023-06-14T04:50:53;8.23;;;4.82;;
38083;SDS011;23894;51.466;7.444;2023-06-14T04:52:56;11.18;;;5.45;;
38083;SDS011;23894;51.466;7.444;2023-06-14T04:54:57;7.75;;;5.13;;
38083;SDS011;23894;51.466;7.444;2023-06-14T04:57:00;7.75;;;4.88;;
38083;SDS011;23894;51.466;7.444;2023-06-14T04:59:02;8.27;;;5.10;;
38083;SDS011;23894;51.466;7.444;2023-06-14T05:01:11;9.80;;;5.22;;
38083;SDS011;23894;51.466;7.444;2023-06-14T05:03:12;7.63;;;5.05;;
38083;SDS011;23894;51.466;7.444;2023-06-14T05:05:13;9.73;;;5.10;;
38083;SDS011;23894;51.466;7.444;2023-06-14T05:07:15;7.18;;;5.05;;
38083;SDS011;23894;51.466;7.444;2023-06-14T05:09:17;8.38;;;5.00;;
38083;SDS011;23894;51.466;7.444;2023-06-14T05:11:18;9.45;;;5.68;;
38083;SDS011;23894;51.466;7.444;2023-06-14T05:13:25;7.95;;;4.75;;
38083;SDS011;23894;51.466;7.444;2023-06-14T05:15:28;11.00;;;4.50;;
38083;SDS011;23894;51.466;7.444;2023-06-14T05:19:29;9.60;;;4.60;;
38083;SDS011;23894;51.466;7.444;2023-06-14T05:21:30;7.40;;;4.70;;
38083;SDS011;23894;51.466;7.444;2023-06-14T05:23:34;8.05;;;5.10;;
38083;SDS011;23894;51.466;7.444;2023-06-14T05:25:38;11.63;;;5.57;;
38083;SDS011;23894;51.466;7.444;2023-06-14T05:27:41;9.57;;;4.55;;
38083;SDS011;23894;51.466;7.444;2023-06-14T05:29:43;7.90;;;4.88;;
38083;SDS011;23894;51.466;7.444;2023-06-14T05:31:44;8.75;;;4.40;;
38083;SDS011;23894;51.466;7.444;2023-06-14T05:35:46;7.90;;;4.43;;
38083;SDS011;23894;51.466;7.444;2023-06-14T05:39:49;6.30;;;3.72;;
38083;SDS011;23894;51.466;7.444;2023-06-14T05:41:52;7.13;;;4.30;;
38083;SDS011;23894;51.466;7.444;2023-06-14T05:43:57;8.15;;;4.40;;
38083;SDS011;23894;51.466;7.444;2023-06-14T05:46:00;7.85;;;4.28;;
38083;SDS011;23894;51.466;7.444;2023-06-14T05:48:01;7.50;;;4.50;;
38083;SDS011;23894;51.466;7.444;2023-06-14T05:52:03;8.52;;;4.40;;
38083;SDS011;23894;51.466;7.444;2023-06-14T05:54:06;8.93;;;4.60;;
38083;SDS011;23894;51.466;7.444;2023-06-14T05:56:08;7.97;;;4.35;;
38083;SDS011;23894;51.466;7.444;2023-06-14T05:58:09;6.75;;;4.20;;
38083;SDS011;23894;51.466;7.444;2023-06-14T06:00:10;7.65;;;4.03;;
38083;SDS011;23894;51.466;7.444;2023-06-14T06:02:14;7.78;;;4.25;;
38083;SDS011;23894;51.466;7.444;2023-06-14T06:06:17;7.93;;;3.90;;
38083;SDS011;23894;51.466;7.444;2023-06-14T06:08:21;6.00;;;3.72;;
38083;SDS011;23894;51.466;7.444;2023-06-14T06:10:22;7.43;;;4.05;;
38083;SDS011;23894;51.466;7.444;2023-06-14T06:12:25;8.02;;;3.92;;
38083;SDS011;23894;51.466;7.444;2023-06-14T06:14:27;9.63;;;3.63;;
38083;SDS011;23894;51.466;7.444;2023-06-14T06:16:29;7.07;;;3.85;;
38083;SDS011;23894;51.466;7.444;2023-06-14T06:20:33;7.57;;;3.13;;
38083;SDS011;23894;51.466;7.444;2023-06-14T06:22:35;9.10;;;3.80;;
38083;SDS011;23894;51.466;7.444;2023-06-14T06:26:38;8.55;;;3.80;;
38083;SDS011;23894;51.466;7.444;2023-06-14T06:28:41;6.57;;;3.78;;
38083;SDS011;23894;51.466;7.444;2023-06-14T06:30:43;5.88;;;3.30;;
38083;SDS011;23894;51.466;7.444;2023-06-14T06:34:47;6.03;;;3.28;;
38083;SDS011;23894;51.466;7.444;2023-06-14T06:36:50;6.65;;;3.53;;
38083;SDS011;23894;51.466;7.444;2023-06-14T06:38:53;7.38;;;3.65;;
38083;SDS011;23894;51.466;7.444;2023-06-14T06:40:56;5.88;;;3.67;;
38083;SDS011;23894;51.466;7.444;2023-06-14T06:42:58;7.45;;;3.47;;
38083;SDS011;23894;51.466;7.444;2023-06-14T06:45:01;8.23;;;3.20;;
38083;SDS011;23894;51.466;7.444;2023-06-14T06:49:06;6.30;;;3.20;;
38083;SDS011;23894;51.466;7.444;2023-06-14T06:51:07;6.28;;;3.25;;
38083;SDS011;23894;51.466;7.444;2023-06-14T06:53:09;8.35;;;3.25;;
38083;SDS011;23894;51.466;7.444;2023-06-14T06:55:12;6.13;;;3.05;;
38083;SDS011;23894;51.466;7.444;2023-06-14T06:59:16;5.85;;;3.13;;
38083;SDS011;23894;51.466;7.444;2023-06-14T07:01:18;7.53;;;3.35;;
38083;SDS011;23894;51.466;7.444;2023-06-14T07:03:20;5.35;;;3.00;;
38083;SDS011;23894;51.466;7.444;2023-06-14T07:07:22;4.70;;;2.53;;
38083;SDS011;23894;51.466;7.444;2023-06-14T07:11:24;5.38;;;2.88;;
38083;SDS011;23894;51.466;7.444;2023-06-14T07:15:27;6.45;;;3.28;;
38083;SDS011;23894;51.466;7.444;2023-06-14T07:17:28;8.93;;;3.22;;
38083;SDS011;23894;51.466;7.444;2023-06-14T07:19:29;5.82;;;3.20;;
38083;SDS011;23894;51.466;7.444;2023-06-14T07:21:31;6.18;;;2.65;;
38083;SDS011;23894;51.466;7.444;2023-06-14T07:25:33;5.72;;;2.80;;
38083;SDS011;23894;51.466;7.444;2023-06-14T07:29:35;6.65;;;3.20;;
38083;SDS011;23894;51.466;7.444;2023-06-14T07:33:38;7.78;;;3.20;;
38083;SDS011;23894;51.466;7.444;2023-06-14T07:35:39;6.97;;;2.90;;
38083;SDS011;23894;51.466;7.444;2023-06-14T07:39:41;5.95;;;2.60;;
38083;SDS011;23894;51.466;7.444;2023-06-14T07:41:42;8.35;;;3.17;;
38083;SDS011;23894;51.466;7.444;2023-06-14T07:45:46;5.40;;;2.70;;
38083;SDS011;23894;51.466;7.444;2023-06-14T07:47:49;7.60;;;2.80;;
38083;SDS011;23894;51.466;7.444;2023-06-14T07:49:52;5.30;;;2.65;;
38083;SDS011;23894;51.466;7.444;2023-06-14T07:51:54;5.70;;;2.75;;
38083;SDS011;23894;51.466;7.444;2023-06-14T07:55:57;4.50;;;2.15;;
38083;SDS011;23894;51.466;7.444;2023-06-14T07:58:01;4.30;;;2.15;;
38083;SDS011;23894;51.466;7.444;2023-06-14T08:00:03;5.43;;;2.70;;
38083;SDS011;23894;51.466;7.444;2023-06-14T08:02:08;4.53;;;2.40;;
38083;SDS011;23894;51.466;7.444;2023-06-14T08:06:10;5.55;;;2.30;;
38083;SDS011;23894;51.466;7.444;2023-06-14T08:10:12;4.65;;;2.53;;
38083;SDS011;23894;51.466;7.444;2023-06-14T08:14:14;4.45;;;2.25;;
38083;SDS011;23894;51.466;7.444;2023-06-14T08:18:17;4.43;;;2.10;;
38083;SDS011;23894;51.466;7.444;2023-06-14T08:20:19;6.15;;;2.30;;
38083;SDS011;23894;51.466;7.444;2023-06-14T08:24:23;7.60;;;2.40;;
38083;SDS011;23894;51.466;7.444;2023-06-14T08:26:27;5.03;;;2.20;;
38083;SDS011;23894;51.466;7.444;2023-06-14T08:28:32;5.40;;;2.10;;
38083;SDS011;23894;51.466;7.444;2023-06-14T08:32:35;5.43;;;2.20;;
38083;SDS011;23894;51.466;7.444;2023-06-14T08:34:39;4.57;;;2.17;;
38083;SDS011;23894;51.466;7.444;2023-06-14T08:36:41;4.47;;;1.88;;
38083;SDS011;23894;51.466;7.444;2023-06-14T08:40:44;4.32;;;1.90;;
38083;SDS011;23894;51.466;7.444;2023-06-14T08:42:48;5.85;;;2.15;;
38083;SDS011;23894;51.466;7.444;2023-06-14T08:44:51;4.45;;;2.05;;
38083;SDS011;23894;51.466;7.444;2023-06-14T08:46:54;5.55;;;2.08;;
38083;SDS011;23894;51.466;7.444;2023-06-14T08:48:58;4.20;;;1.88;;
38083;SDS011;23894;51.466;7.444;2023-06-14T08:51:21;4.43;;;1.95;;
38083;SDS011;23894;51.466;7.444;2023-06-14T08:53:25;4.25;;;1.98;;
38083;SDS011;23894;51.466;7.444;2023-06-14T08:55:32;4.55;;;1.98;;
38083;SDS011;23894;51.466;7.444;2023-06-14T08:57:33;4.18;;;1.92;;
38083;SDS011;23894;51.466;7.444;2023-06-14T08:59:37;5.78;;;1.88;;
38083;SDS011;23894;51.466;7.444;2023-06-14T09:01:47;3.95;;;1.65;;
38083;SDS011;23894;51.466;7.444;2023-06-14T09:03:54;3.78;;;1.73;;
38083;SDS011;23894;51.466;7.444;2023-06-14T09:05:58;4.60;;;1.50;;
38083;SDS011;23894;51.466;7.444;2023-06-14T09:08:00;4.15;;;1.50;;
38083;SDS011;23894;51.466;7.444;2023-06-14T09:10:06;5.43;;;1.48;;
38083;SDS011;23894;51.466;7.444;2023-06-14T09:12:10;3.72;;;1.67;;
38083;SDS011;23894;51.466;7.444;2023-06-14T09:14:13;4.03;;;1.58;;
38083;SDS011;23894;51.466;7.444;2023-06-14T09:16:14;3.80;;;1.40;;
38083;SDS011;23894;51.466;7.444;2023-06-14T09:18:16;4.63;;;1.50;;
38083;SDS011;23894;51.466;7.444;2023-06-14T09:20:17;4.50;;;1.80;;
38083;SDS011;23894;51.466;7.444;2023-06-14T09:22:18;5.82;;;1.67;;
38083;SDS011;23894;51.466;7.444;2023-06-14T09:24:20;4.20;;;1.70;;
38083;SDS011;23894;51.466;7.444;2023-06-14T09:28:26;5.22;;;1.42;;
38083;SDS011;23894;51.466;7.444;2023-06-14T09:30:29;4.25;;;1.70;;
38083;SDS011;23894;51.466;7.444;2023-06-14T09:32:31;4.95;;;1.83;;
38083;SDS011;23894;51.466;7.444;2023-06-14T09:34:35;6.28;;;2.00;;
38083;SDS011;23894;51.466;7.444;2023-06-14T09:36:39;4.18;;;1.83;;
38083;SDS011;23894;51.466;7.444;2023-06-14T09:38:51;4.57;;;1.90;;
38083;SDS011;23894;51.466;7.444;2023-06-14T09:40:52;4.63;;;2.00;;
38083;SDS011;23894;51.466;7.444;2023-06-14T09:42:54;4.78;;;1.90;;
38083;SDS011;23894;51.466;7.444;2023-06-14T09:44:59;5.03;;;1.92;;
38083;SDS011;23894;51.466;7.444;2023-06-14T09:47:04;4.85;;;1.83;;
38083;SDS011;23894;51.466;7.444;2023-06-14T09:49:05;5.40;;;2.00;;
38083;SDS011;23894;51.466;7.444;2023-06-14T09:51:10;4.97;;;2.08;;
38083;SDS011;23894;51.466;7.444;2023-06-14T09:53:29;4.72;;;2.00;;
38083;SDS011;23894;51.466;7.444;2023-06-14T09:55:30;3.83;;;1.85;;
38083;SDS011;23894;51.466;7.444;2023-06-14T09:57:34;4.90;;;1.77;;
38083;SDS011;23894;51.466;7.444;2023-06-14T09:59:36;4.18;;;1.70;;
38083;SDS011;23894;51.466;7.444;2023-06-14T10:01:42;5.72;;;1.42;;
38083;SDS011;23894;51.466;7.444;2023-06-14T10:03:44;6.03;;;2.00;;
38083;SDS011;23894;51.466;7.444;2023-06-14T10:05:48;5.38;;;1.80;;
38083;SDS011;23894;51.466;7.444;2023-06-14T10:07:59;3.78;;;1.63;;
38083;SDS011;23894;51.466;7.444;2023-06-14T10:10:02;3.58;;;1.60;;
38083;SDS011;23894;51.466;7.444;2023-06-14T10:12:04;5.28;;;1.58;;
38083;SDS011;23894;51.466;7.444;2023-06-14T10:14:06;5.32;;;1.67;;
38083;SDS011;23894;51.466;7.444;2023-06-14T10:16:09;6.05;;;1.88;;
38083;SDS011;23894;51.466;7.444;2023-06-14T10:18:13;5.18;;;1.65;;
38083;SDS011;23894;51.466;7.444;2023-06-14T10:20:30;4.40;;;1.77;;
38083;SDS011;23894;51.466;7.444;2023-06-14T10:22:36;4.20;;;1.52;;
38083;SDS011;23894;51.466;7.444;2023-06-14T10:24:42;5.65;;;1.40;;
38083;SDS011;23894;51.466;7.444;2023-06-14T10:26:58;5.70;;;1.60;;
38083;SDS011;23894;51.466;7.444;2023-06-14T10:29:09;4.05;;;1.60;;
38083;SDS011;23894;51.466;7.444;2023-06-14T10:31:11;4.72;;;1.48;;
38083;SDS011;23894;51.466;7.444;2023-06-14T10:33:15;4.25;;;1.40;;
38083;SDS011;23894;51.466;7.444;2023-06-14T10:35:16;3.70;;;1.60;;
38083;SDS011;23894;51.466;7.444;2023-06-14T10:37:17;4.93;;;1.55;;
38083;SDS011;23894;51.466;7.444;2023-06-14T10:39:20;4.55;;;1.45;;
38083;SDS011;23894;51.466;7.444;2023-06-14T10:41:27;4.60;;;1.70;;
38083;SDS011;23894;51.466;7.444;2023-06-14T10:43:29;6.72;;;1.48;;
38083;SDS011;23894;51.466;7.444;2023-06-14T10:45:31;4.03;;;1.50;;
38083;SDS011;23894;51.466;7.444;2023-06-14T10:47:33;5.57;;;1.60;;
38083;SDS011;23894;51.466;7.444;2023-06-14T10:50:02;4.60;;;1.40;;
38083;SDS011;23894;51.466;7.444;2023-06-14T10:52:04;3.87;;;1.50;;
38083;SDS011;23894;51.466;7.444;2023-06-14T10:54:07;5.50;;;1.75;;
38083;SDS011;23894;51.466;7.444;2023-06-14T10:56:28;4.22;;;1.77;;
38083;SDS011;23894;51.466;7.444;2023-06-14T10:58:30;6.30;;;1.77;;
38083;SDS011;23894;51.466;7.444;2023-06-14T11:00:31;3.50;;;1.60;;
38083;SDS011;23894;51.466;7.444;2023-06-14T11:04:58;7.00;;;1.77;;
38083;SDS011;23894;51.466;7.444;2023-06-14T11:07:17;6.68;;;1.92;;
38083;SDS011;23894;51.466;7.444;2023-06-14T11:11:32;5.25;;;1.80;;
38083;SDS011;23894;51.466;7.444;2023-06-14T11:13:36;6.18;;;1.88;;
38083;SDS011;23894;51.466;7.444;2023-06-14T11:15:43;4.38;;;2.00;;
38083;SDS011;23894;51.466;7.444;2023-06-14T11:17:52;5.38;;;2.03;;
38083;SDS011;23894;51.466;7.444;2023-06-14T11:22:17;4.00;;;1.83;;
38083;SDS011;23894;51.466;7.444;2023-06-14T11:24:23;3.92;;;1.80;;
38083;SDS011;23894;51.466;7.444;2023-06-14T11:26:31;4.10;;;1.77;;
38083;SDS011;23894;51.466;7.444;2023-06-14T11:28:38;4.15;;;1.83;;
38083;SDS011;23894;51.466;7.444;2023-06-14T11:30:42;6.60;;;1.88;;
38083;SDS011;23894;51.466;7.444;2023-06-14T11:32:49;5.07;;;2.13;;
38083;SDS011;23894;51.466;7.444;2023-06-14T11:34:51;3.90;;;1.67;;
38083;SDS011;23894;51.466;7.444;2023-06-14T11:36:53;5.80;;;2.08;;
38083;SDS011;23894;51.466;7.444;2023-06-14T11:39:05;7.65;;;2.38;;
38083;SDS011;23894;51.466;7.444;2023-06-14T11:41:12;6.47;;;2.00;;
38083;SDS011;23894;51.466;7.444;2023-06-14T11:43:15;4.70;;;2.08;;
38083;SDS011;23894;51.466;7.444;2023-06-14T11:45:17;4.68;;;1.90;;
38083;SDS011;23894;51.466;7.444;2023-06-14T11:47:20;4.82;;;2.10;;
38083;SDS011;23894;51.466;7.444;2023-06-14T11:49:23;5.82;;;2.25;;
38083;SDS011;23894;51.466;7.444;2023-06-14T11:51:27;4.38;;;1.98;;
38083;SDS011;23894;51.466;7.444;2023-06-14T11:53:28;6.32;;;2.17;;
38083;SDS011;23894;51.466;7.444;2023-06-14T11:55:30;7.95;;;2.13;;
38083;SDS011;23894;51.466;7.444;2023-06-14T11:57:34;5.75;;;1.98;;
38083;SDS011;23894;51.466;7.444;2023-06-14T11:59:39;4.28;;;2.00;;
38083;SDS011;23894;51.466;7.444;2023-06-14T12:01:42;5.95;;;2.20;;
38083;SDS011;23894;51.466;7.444;2023-06-14T12:03:50;6.90;;;2.10;;
38083;SDS011;23894;51.466;7.444;2023-06-14T12:06:02;4.68;;;1.80;;
38083;SDS011;23894;51.466;7.444;2023-06-14T12:08:04;7.05;;;2.20;;
38083;SDS011;23894;51.466;7.444;2023-06-14T12:10:10;4.85;;;2.25;;
38083;SDS011;23894;51.466;7.444;2023-06-14T12:12:15;5.85;;;1.88;;
38083;SDS011;23894;51.466;7.444;2023-06-14T12:14:16;5.72;;;2.08;;
38083;SDS011;23894;51.466;7.444;2023-06-14T12:16:17;4.30;;;1.83;;
38083;SDS011;23894;51.466;7.444;2023-06-14T12:18:18;4.82;;;2.00;;
38083;SDS011;23894;51.466;7.444;2023-06-14T12:20:19;5.45;;;2.05;;
38083;SDS011;23894;51.466;7.444;2023-06-14T12:22:22;5.22;;;1.80;;
38083;SDS011;23894;51.466;7.444;2023-06-14T12:24:27;4.25;;;1.98;;
38083;SDS011;23894;51.466;7.444;2023-06-14T12:26:29;7.00;;;1.88;;
38083;SDS011;23894;51.466;7.444;2023-06-14T12:28:32;4.28;;;1.90;;
38083;SDS011;23894;51.466;7.444;2023-06-14T12:30:38;5.13;;;2.30;;
38083;SDS011;23894;51.466;7.444;2023-06-14T12:32:40;4.00;;;1.80;;
38083;SDS011;23894;51.466;7.444;2023-06-14T12:34:41;5.28;;;2.08;;
38083;SDS011;23894;51.466;7.444;2023-06-14T12:36:44;4.80;;;1.95;;
38083;SDS011;23894;51.466;7.444;2023-06-14T12:38:46;4.20;;;1.88;;
38083;SDS011;23894;51.466;7.444;2023-06-14T12:40:47;4.95;;;1.92;;
38083;SDS011;23894;51.466;7.444;2023-06-14T12:42:49;7.65;;;2.00;;
38083;SDS011;23894;51.466;7.444;2023-06-14T12:44:50;5.03;;;2.20;;
38083;SDS011;23894;51.466;7.444;2023-06-14T12:46:51;5.97;;;2.17;;
38083;SDS011;23894;51.466;7.444;2023-06-14T12:48:55;6.13;;;2.03;;
38083;SDS011;23894;51.466;7.444;2023-06-14T12:50:59;3.70;;;1.63;;
38083;SDS011;23894;51.466;7.444;2023-06-14T12:53:01;4.95;;;2.22;;
38083;SDS011;23894;51.466;7.444;2023-06-14T12:55:06;4.57;;;1.77;;
38083;SDS011;23894;51.466;7.444;2023-06-14T12:57:07;4.85;;;2.08;;
38083;SDS011;23894;51.466;7.444;2023-06-14T12:59:10;4.28;;;1.90;;
38083;SDS011;23894;51.466;7.444;2023-06-14T13:01:14;3.80;;;1.65;;
38083;SDS011;23894;51.466;7.444;2023-06-14T13:03:16;5.40;;;2.10;;
38083;SDS011;23894;51.466;7.444;2023-06-14T13:05:17;6.78;;;1.95;;
38083;SDS011;23894;51.466;7.444;2023-06-14T13:07:20;4.95;;;1.95;;
38083;SDS011;23894;51.466;7.444;2023-06-14T13:09:23;6.38;;;2.13;;
38083;SDS011;23894;51.466;7.444;2023-06-14T13:11:37;7.05;;;2.22;;
38083;SDS011;23894;51.466;7.444;2023-06-14T13:13:40;6.25;;;2.20;;
38083;SDS011;23894;51.466;7.444;2023-06-14T13:15:43;5.97;;;2.03;;
38083;SDS011;23894;51.466;7.444;2023-06-14T13:17:45;4.60;;;1.88;;
38083;SDS011;23894;51.466;7.444;2023-06-14T13:19:48;5.05;;;1.90;;
38083;SDS011;23894;51.466;7.444;2023-06-14T13:21:49;3.97;;;1.77;;
38083;SDS011;23894;51.466;7.444;2023-06-14T13:23:50;4.60;;;1.90;;
38083;SDS011;23894;51.466;7.444;2023-06-14T13:25:53;4.55;;;2.10;;
38083;SDS011;23894;51.466;7.444;2023-06-14T13:27:55;5.43;;;2.20;;
38083;SDS011;23894;51.466;7.444;2023-06-14T13:29:56;4.72;;;2.10;;
38083;SDS011;23894;51.466;7.444;2023-06-14T13:31:57;7.40;;;2.42;;
38083;SDS011;23894;51.466;7.444;2023-06-14T13:33:59;4.97;;;1.95;;
38083;SDS011;23894;51.466;7.444;2023-06-14T13:36:03;5.90;;;2.10;;
38083;SDS011;23894;51.466;7.444;2023-06-14T13:38:28;6.85;;;2.15;;
38083;SDS011;23894;51.466;7.444;2023-06-14T13:40:29;4.40;;;2.10;;
38083;SDS011;23894;51.466;7.444;2023-06-14T13:42:31;4.95;;;2.05;;
38083;SDS011;23894;51.466;7.444;2023-06-14T13:44:33;6.70;;;2.13;;
38083;SDS011;23894;51.466;7.444;2023-06-14T13:46:34;5.10;;;1.98;;
38083;SDS011;23894;51.466;7.444;2023-06-14T13:48:36;4.70;;;2.05;;
38083;SDS011;23894;51.466;7.444;2023-06-14T13:50:38;4.57;;;2.03;;
38083;SDS011;23894;51.466;7.444;2023-06-14T13:52:39;5.63;;;2.05;;
38083;SDS011;23894;51.466;7.444;2023-06-14T13:54:40;8.43;;;3.17;;